Time;durP1;ratioP1;P1;durP2;ratioP2;P2;SDS_P1;SDS_P2;PMS_P1;PMS_P2;Temp;Humidity;BMP_temperature;BMP_pressure;BME280_temperature;BME280_humidity;BME280_pressure;Samples;Min_cycle;Max_cycle;Signal;HPM_P1;HPM_P2
2023/10/08 00:03:10;;;;;;;0.10;0.10;;;13.30;99.90;;;;;;5113890;28;20058;-62
2023/10/08 00:05:40;;;;;;;0.10;0.10;;;13.30;99.90;;;;;;5114239;28;20099;-61
2023/10/08 00:08:06;;;;;;;0.10;0.10;;;12.90;99.90;;;;;;5114062;28;20055;-62
2023/10/08 00:10:37;;;;;;;0.10;0.10;;;13.50;99.90;;;;;;5113836;28;20044;-62
2023/10/08 00:13:06;;;;;;;0.10;0.10;;;13.70;99.90;;;;;;5114020;28;20048;-62
2023/10/08 00:15:32;;;;;;;0.10;0.10;;;13.70;99.90;;;;;;5113740;28;20072;-62
2023/10/08 00:18:00;;;;;;;0.13;0.13;;;13.10;99.90;;;;;;5113685;28;20073;-61
2023/10/08 00:20:35;;;;;;;0.10;0.10;;;13.80;99.90;;;;;;5114061;28;20059;-62
2023/10/08 00:23:07;;;;;;;0.68;0.22;;;13.80;99.90;;;;;;5113950;28;20785;-62
2023/10/08 00:25:34;;;;;;;0.10;0.10;;;13.30;99.90;;;;;;5113605;28;20051;-62
2023/10/08 00:28:01;;;;;;;0.10;0.10;;;13.90;99.90;;;;;;5095437;28;20472;-61
2023/10/08 00:30:27;;;;;;;0.10;0.10;;;13.40;99.90;;;;;;5113580;28;20077;-63
2023/10/08 00:32:53;;;;;;;0.10;0.10;;;13.50;99.90;;;;;;5113599;28;20070;-62
2023/10/08 00:35:20;;;;;;;0.10;0.10;;;13.40;99.90;;;;;;5113537;28;20046;-62
2023/10/08 00:37:48;;;;;;;0.10;0.10;;;13.50;99.90;;;;;;5113542;28;20066;-61
2023/10/08 00:40:19;;;;;;;0.10;0.10;;;13.10;99.90;;;;;;5113317;28;20053;-62
2023/10/08 00:42:47;;;;;;;0.10;0.10;;;13.30;99.90;;;;;;5113201;28;20044;-62
2023/10/08 00:45:19;;;;;;;0.10;0.10;;;13.90;99.90;;;;;;5112824;28;20048;-64
2023/10/08 00:47:46;;;;;;;0.10;0.10;;;13.40;99.90;;;;;;5113535;28;20086;-62
2023/10/08 00:50:31;;;;;;;0.10;0.10;;;13.40;99.90;;;;;;5112982;28;20487;-61
2023/10/08 00:53:00;;;;;;;0.30;0.30;;;13.40;99.90;;;;;;5113082;28;20050;-61
2023/10/08 00:55:29;;;;;;;0.10;0.10;;;13.70;99.90;;;;;;5112985;28;20051;-61
2023/10/08 00:58:07;;;;;;;0.20;0.20;;;13.70;99.90;;;;;;5113022;28;20054;-61
2023/10/08 01:00:37;;;;;;;0.30;0.30;;;13.60;99.90;;;;;;5112949;28;20059;-61
2023/10/08 01:03:14;;;;;;;0.10;0.10;;;13.60;99.90;;;;;;5112933;28;20180;-61
2023/10/08 01:05:47;;;;;;;0.17;0.17;;;13.20;99.90;;;;;;5112771;28;20067;-63
2023/10/08 01:08:22;;;;;;;0.10;0.10;;;13.90;99.90;;;;;;5113007;28;20056;-62
2023/10/08 01:10:48;;;;;;;0.17;0.17;;;13.50;99.90;;;;;;5112966;28;20055;-62
2023/10/08 01:13:20;;;;;;;0.10;0.10;;;13.80;99.90;;;;;;5112710;28;20043;-61
2023/10/08 01:15:51;;;;;;;0.10;0.10;;;13.50;99.90;;;;;;5112685;28;20051;-62
2023/10/08 01:18:31;;;;;;;0.10;0.10;;;13.70;99.90;;;;;;5112407;28;20058;-62
2023/10/08 01:21:04;;;;;;;0.10;0.10;;;13.50;99.90;;;;;;5112740;28;20048;-61
2023/10/08 01:23:31;;;;;;;0.10;0.10;;;13.50;99.90;;;;;;5112754;28;20047;-61
2023/10/08 01:26:10;;;;;;;0.20;0.20;;;13.40;99.90;;;;;;5112361;28;20058;-62
2023/10/08 01:28:36;;;;;;;0.10;0.10;;;13.30;99.90;;;;;;5112323;28;20054;-61
2023/10/08 01:31:03;;;;;;;;;;;13.60;99.90;;;;;;5112514;28;20909;-62
2023/10/08 01:33:31;;;;;;;0.10;0.10;;;13.30;99.90;;;;;;5112592;28;20010;-61
2023/10/08 01:36:02;;;;;;;0.20;0.20;;;13.10;99.90;;;;;;5112214;28;20047;-61
2023/10/08 01:38:29;;;;;;;0.10;0.10;;;13.10;99.90;;;;;;5112418;28;20180;-62
2023/10/08 01:40:56;;;;;;;0.43;0.43;;;13.50;99.90;;;;;;5112059;28;20054;-61
2023/10/08 01:43:22;;;;;;;0.75;0.75;;;13.60;99.90;;;;;;5111972;28;20039;-62
2023/10/08 01:45:52;;;;;;;;;;;13.50;99.90;;;;;;5112500;28;20083;-62
2023/10/08 01:48:27;;;;;;;0.20;0.20;;;13.40;99.90;;;;;;5112381;28;19930;-62
2023/10/08 01:51:03;;;;;;;0.10;0.10;;;13.40;99.90;;;;;;5112060;28;20403;-63
2023/10/08 01:53:30;;;;;;;0.10;0.10;;;13.50;99.90;;;;;;5111919;28;20047;-62
2023/10/08 01:55:56;;;;;;;0.10;0.10;;;14.80;99.90;;;;;;5111690;28;20274;-62
2023/10/08 01:58:24;;;;;;;0.10;0.10;;;13.70;99.90;;;;;;5112104;28;20108;-61
2023/10/08 02:00:52;;;;;;;0.25;0.25;;;13.60;99.90;;;;;;5111852;28;20050;-61
2023/10/08 02:03:18;;;;;;;0.00;0.00;;;13.60;99.90;;;;;;5093541;28;20055;-61
2023/10/08 02:05:47;;;;;;;0.20;0.20;;;13.20;99.90;;;;;;5111573;28;20475;-62
2023/10/08 02:08:14;;;;;;;0.10;0.10;;;13.80;99.90;;;;;;5111581;28;20396;-62
2023/10/08 02:10:42;;;;;;;0.10;0.10;;;13.50;99.90;;;;;;5111463;28;20494;-63
2023/10/08 02:13:09;;;;;;;0.10;0.10;;;13.30;99.90;;;;;;5111887;28;20051;-64
2023/10/08 02:15:43;;;;;;;0.13;0.13;;;13.30;99.90;;;;;;5111815;28;20044;-61
2023/10/08 02:18:09;;;;;;;0.10;0.10;;;13.30;99.90;;;;;;5111791;28;20138;-62
2023/10/08 02:20:35;;;;;;;0.10;0.10;;;13.20;99.90;;;;;;5111746;28;20130;-62
2023/10/08 02:23:00;;;;;;;;;;;13.50;99.90;;;;;;5111145;28;20048;-62
2023/10/08 02:25:26;;;;;;;0.20;0.20;;;13.40;99.90;;;;;;5111545;28;19927;-63
2023/10/08 02:27:52;;;;;;;0.10;0.10;;;13.40;99.90;;;;;;5111462;28;20090;-62
2023/10/08 02:30:18;;;;;;;;;;;13.40;99.90;;;;;;5111921;28;20429;-62
2023/10/08 02:32:46;;;;;;;0.17;0.17;;;13.80;99.90;;;;;;5111201;28;19924;-62
2023/10/08 02:35:12;;;;;;;1.08;1.08;;;13.30;99.90;;;;;;5111292;28;20893;-62
2023/10/08 02:37:39;;;;;;;0.10;0.10;;;13.40;99.90;;;;;;5111065;28;20059;-62
2023/10/08 02:40:30;;;;;;;0.20;0.20;;;13.30;99.90;;;;;;5110972;28;20054;-62
2023/10/08 02:42:58;;;;;;;0.10;0.10;;;13.10;99.90;;;;;;5110957;28;20055;-62
2023/10/08 02:45:27;;;;;;;0.10;0.10;;;13.50;99.90;;;;;;5111098;28;20055;-62
2023/10/08 02:47:57;;;;;;;0.20;0.20;;;13.50;99.90;;;;;;5111353;28;20055;-62
2023/10/08 02:50:23;;;;;;;0.15;0.15;;;13.50;99.90;;;;;;5111504;28;20087;-62
2023/10/08 02:52:49;;;;;;;;;;;13.60;99.90;;;;;;5094027;28;20128;-63
2023/10/08 02:55:34;;;;;;;0.15;0.15;;;13.50;99.90;;;;;;5111719;28;19920;-62
2023/10/08 02:58:03;;;;;;;1.45;1.35;;;13.10;99.90;;;;;;5111810;28;20055;-62
2023/10/08 03:00:29;;;;;;;0.88;0.85;;;13.40;99.90;;;;;;5111619;28;20040;-61
2023/10/08 03:03:02;;;;;;;1.90;0.40;;;13.50;99.90;;;;;;5111716;28;20130;-63
2023/10/08 03:05:35;;;;;;;0.10;0.10;;;13.40;99.90;;;;;;5111372;28;20122;-62
2023/10/08 03:08:10;;;;;;;0.63;0.45;;;13.50;99.90;;;;;;5111535;28;20051;-62
2023/10/08 03:10:37;;;;;;;0.10;0.10;;;13.40;99.90;;;;;;5111469;28;20051;-62
2023/10/08 03:13:05;;;;;;;0.25;0.22;;;13.40;99.90;;;;;;5111283;28;20047;-62
2023/10/08 03:15:38;;;;;;;0.10;0.10;;;13.60;99.90;;;;;;5111593;28;20047;-63
2023/10/08 03:18:14;;;;;;;0.20;0.20;;;13.50;99.90;;;;;;5111305;28;20554;-62
2023/10/08 03:20:45;;;;;;;0.10;0.10;;;13.70;99.90;;;;;;5111407;28;20054;-62
2023/10/08 03:23:23;;;;;;;0.20;0.20;;;13.50;99.90;;;;;;5111385;28;20056;-62
2023/10/08 03:26:01;;;;;;;0.10;0.10;;;13.30;99.90;;;;;;5111190;28;20475;-62
2023/10/08 03:28:29;;;;;;;0.10;0.10;;;13.40;99.90;;;;;;5111568;28;20051;-62
2023/10/08 03:31:05;;;;;;;0.32;0.32;;;13.50;99.90;;;;;;5111371;28;20051;-63
2023/10/08 03:33:37;;;;;;;0.32;0.32;;;13.50;99.90;;;;;;5111436;28;20090;-62
2023/10/08 03:36:33;;;;;;;0.10;0.10;;;13.60;99.90;;;;;;5114267;28;20051;-63
2023/10/08 03:39:09;;;;;;;0.10;0.10;;;13.50;99.90;;;;;;5115071;28;20040;-62
2023/10/08 03:41:39;;;;;;;0.20;0.20;;;13.40;99.90;;;;;;5114998;28;20552;-62
2023/10/08 03:44:06;;;;;;;0.10;0.10;;;13.10;99.90;;;;;;5114815;28;20553;-62
2023/10/08 03:46:42;;;;;;;0.10;0.10;;;13.20;99.90;;;;;;5114602;28;20090;-62
2023/10/08 03:51:52;;;;;;;2.83;0.20;;;13.50;99.90;;;;;;5114920;28;20086;-62
2023/10/08 03:54:24;;;;;;;0.10;0.10;;;13.40;99.90;;;;;;5114840;28;20135;-62
2023/10/08 03:56:51;;;;;;;0.20;0.20;;;13.20;99.90;;;;;;5114964;28;20836;-62
2023/10/08 03:59:31;;;;;;;0.10;0.10;;;13.40;99.90;;;;;;5114889;28;20090;-62
2023/10/08 04:02:21;;;;;;;0.10;0.10;;;13.10;99.90;;;;;;5114662;28;20039;-62
2023/10/08 04:04:56;;;;;;;0.10;0.10;;;13.40;99.90;;;;;;5114437;28;20079;-62
2023/10/08 04:07:44;;;;;;;0.10;0.10;;;13.40;99.90;;;;;;5114732;28;20084;-62
2023/10/08 04:12:47;;;;;;;1.92;1.23;;;13.70;99.90;;;;;;5114643;28;20047;-61
2023/10/08 04:15:16;;;;;;;0.10;0.10;;;13.50;99.90;;;;;;5114377;28;20043;-62
2023/10/08 04:17:44;;;;;;;0.52;0.30;;;13.30;99.90;;;;;;5114071;28;20611;-63
2023/10/08 04:22:56;;;;;;;7.13;0.63;;;13.40;99.90;;;;;;5114223;28;20059;-64
2023/10/08 04:25:21;;;;;;;0.10;0.10;;;13.60;99.90;;;;;;5114019;28;20043;-62
2023/10/08 04:27:49;;;;;;;0.15;0.15;;;13.70;99.90;;;;;;5113986;28;20083;-62
2023/10/08 04:30:16;;;;;;;0.20;0.20;;;13.40;99.90;;;;;;5113398;28;20051;-63
2023/10/08 04:32:42;;;;;;;0.20;0.20;;;13.30;99.90;;;;;;5114042;28;20044;-62
2023/10/08 04:35:14;;;;;;;5.35;1.10;;;13.80;99.90;;;;;;5113985;28;20472;-62
2023/10/08 04:37:40;;;;;;;0.10;0.10;;;13.70;99.90;;;;;;5113799;28;20051;-62
2023/10/08 04:40:15;;;;;;;0.20;0.20;;;13.20;99.90;;;;;;5113778;28;20088;-62
2023/10/08 04:42:44;;;;;;;0.20;0.20;;;13.70;99.90;;;;;;5113741;28;20047;-62
2023/10/08 04:45:13;;;;;;;0.10;0.10;;;13.20;99.90;;;;;;5113773;28;20050;-61
2023/10/08 04:47:42;;;;;;;0.63;0.20;;;12.90;99.90;;;;;;5113077;28;20050;-62
2023/10/08 04:50:14;;;;;;;0.10;0.10;;;13.30;99.90;;;;;;5113695;28;20051;-62
2023/10/08 04:52:46;;;;;;;0.10;0.10;;;13.40;99.90;;;;;;5113505;28;20057;-62
2023/10/08 04:55:20;;;;;;;0.10;0.10;;;13.50;99.90;;;;;;5113386;28;20079;-62
2023/10/08 04:57:49;;;;;;;0.10;0.10;;;13.20;99.90;;;;;;5112196;28;20068;-63
2023/10/08 05:00:15;;;;;;;0.10;0.10;;;13.40;99.90;;;;;;5113134;28;20483;-62
2023/10/08 05:02:50;;;;;;;0.10;0.10;;;13.10;99.90;;;;;;5113343;28;20120;-63
2023/10/08 05:10:30;;;;;;;0.32;0.32;;;13.30;99.90;;;;;;5113195;28;19923;-62
2023/10/08 05:16:02;;;;;;;0.10;0.10;;;13.30;99.90;;;;;;5113200;28;20054;-62
2023/10/08 05:18:54;;;;;;;0.20;0.20;;;12.80;99.90;;;;;;5112828;28;20113;-63
2023/10/08 05:21:28;;;;;;;0.20;0.20;;;12.90;99.90;;;;;;5112903;28;20060;-64
2023/10/08 05:24:08;;;;;;;0.10;0.10;;;13.30;99.90;;;;;;5112786;28;20049;-62
2023/10/08 05:26:49;;;;;;;0.10;0.10;;;13.10;99.90;;;;;;5111575;28;20048;-62
2023/10/08 05:35:30;;;;;;;0.20;0.20;;;12.90;99.90;;;;;;5112618;28;20062;-62
2023/10/08 05:37:42;;;;;;;0.28;0.28;;;13.10;99.90;;;;;;5112530;28;20087;-62
2023/10/08 05:40:20;;;;;;;0.10;0.10;;;12.90;99.90;;;;;;5112817;28;20073;-62
2023/10/08 05:42:46;;;;;;;0.10;0.10;;;13.00;99.90;;;;;;5112649;28;20048;-62
2023/10/08 05:47:41;;;;;;;0.10;0.10;;;13.10;99.90;;;;;;5112439;28;20062;-62
2023/10/08 05:55:33;;;;;;;0.10;0.10;;;12.80;99.90;;;;;;5112415;28;20054;-62
2023/10/08 05:58:14;;;;;;;0.20;0.20;;;13.30;99.90;;;;;;5111502;28;20411;-62
2023/10/08 06:03:32;;;;;;;0.20;0.20;;;12.80;99.90;;;;;;5112560;28;20083;-63
2023/10/08 06:06:22;;;;;;;0.10;0.10;;;13.10;99.90;;;;;;5112136;28;20052;-62
2023/10/08 06:08:52;;;;;;;0.30;0.30;;;13.00;99.90;;;;;;5112525;28;20130;-62
2023/10/08 06:11:36;;;;;;;0.20;0.20;;;13.10;99.90;;;;;;5111207;28;20099;-62
2023/10/08 06:14:11;;;;;;;0.10;0.10;;;13.20;99.90;;;;;;5112537;28;20075;-64
2023/10/08 06:16:43;;;;;;;1.08;0.22;;;13.40;99.90;;;;;;5112171;28;20143;-64
2023/10/08 06:19:11;;;;;;;0.20;0.20;;;13.20;99.90;;;;;;5112313;28;20417;-62
2023/10/08 06:21:41;;;;;;;0.10;0.10;;;12.90;99.90;;;;;;5112132;28;20051;-63
2023/10/08 06:24:16;;;;;;;0.20;0.20;;;13.10;99.90;;;;;;5112175;28;20049;-62
2023/10/08 06:26:42;;;;;;;0.43;0.40;;;13.10;99.90;;;;;;5111830;28;20491;-62
2023/10/08 06:29:18;;;;;;;0.20;0.20;;;13.00;99.90;;;;;;5111784;28;20062;-63
2023/10/08 06:31:51;;;;;;;0.10;0.10;;;13.60;99.90;;;;;;5111152;28;20043;-61
2023/10/08 06:34:21;;;;;;;0.10;0.10;;;13.30;99.90;;;;;;5112119;28;20079;-62
2023/10/08 06:36:48;;;;;;;0.20;0.20;;;13.30;99.90;;;;;;5107607;28;20047;-67
2023/10/08 06:39:18;;;;;;;0.10;0.10;;;13.50;99.90;;;;;;5110671;28;20058;-63
2023/10/08 06:41:46;;;;;;;1.73;0.30;;;13.40;99.90;;;;;;5111285;28;20521;-63
2023/10/08 06:44:15;;;;;;;0.10;0.10;;;13.40;99.90;;;;;;5111094;28;20058;-62
2023/10/08 06:46:41;;;;;;;0.10;0.10;;;13.40;99.90;;;;;;5096706;28;20092;-62
2023/10/08 06:49:11;;;;;;;;;;;13.60;99.90;;;;;;5132296;28;20076;-62
2023/10/08 06:51:43;;;;;;;0.17;0.17;;;13.50;99.90;;;;;;5127977;28;20358;-65
2023/10/08 06:54:13;;;;;;;0.38;0.38;;;13.70;99.90;;;;;;5111357;28;20043;-62
2023/10/08 06:56:43;;;;;;;0.10;0.10;;;13.50;99.90;;;;;;5111413;28;20035;-63
2023/10/08 06:59:09;;;;;;;0.10;0.10;;;13.70;99.90;;;;;;5111051;28;20081;-62
2023/10/08 07:01:45;;;;;;;0.35;0.32;;;13.90;99.90;;;;;;5111379;28;20130;-63
2023/10/08 07:04:12;;;;;;;0.10;0.10;;;13.50;99.90;;;;;;5108945;28;20047;-65
2023/10/08 07:06:46;;;;;;;0.47;0.20;;;13.40;99.90;;;;;;5111323;28;20116;-63
2023/10/08 07:09:29;;;;;;;0.15;0.15;;;13.40;99.90;;;;;;5114265;28;20051;-61
2023/10/08 07:11:58;;;;;;;0.10;0.10;;;13.70;99.90;;;;;;5122725;27;20043;-63
2023/10/08 07:14:26;;;;;;;0.65;0.65;;;13.50;99.90;;;;;;5115021;28;20090;-62
2023/10/08 07:16:54;;;;;;;0.00;0.00;;;13.50;99.90;;;;;;5100415;28;20410;-62
2023/10/08 07:19:23;;;;;;;0.10;0.10;;;13.80;99.90;;;;;;5114642;28;20054;-62
2023/10/08 07:21:54;;;;;;;0.10;0.10;;;13.50;99.90;;;;;;5114081;27;20097;-67
2023/10/08 07:24:21;;;;;;;0.10;0.10;;;13.40;99.90;;;;;;5130589;27;20058;-61
2023/10/08 07:26:49;;;;;;;0.10;0.10;;;13.60;99.90;;;;;;5122842;27;20055;-62
2023/10/08 07:29:19;;;;;;;0.10;0.10;;;13.60;99.90;;;;;;5120693;27;20108;-60
2023/10/08 07:31:52;;;;;;;0.00;0.00;;;13.80;99.90;;;;;;5135120;27;20116;-63
2023/10/08 07:34:25;;;;;;;0.30;0.30;;;13.40;99.90;;;;;;5125966;27;20047;-62
2023/10/08 07:36:52;;;;;;;0.10;0.10;;;13.80;99.90;;;;;;5117234;27;20101;-63
2023/10/08 07:41:59;;;;;;;0.10;0.10;;;13.70;99.90;;;;;;5125512;27;20054;-61
2023/10/08 07:44:29;;;;;;;0.10;0.10;;;13.70;99.90;;;;;;5127575;27;20123;-61
2023/10/08 07:46:56;;;;;;;0.10;0.10;;;13.70;99.90;;;;;;5134991;27;20050;-61
2023/10/08 07:49:26;;;;;;;0.10;0.10;;;13.80;99.90;;;;;;5134502;27;20088;-61
2023/10/08 07:51:52;;;;;;;0.10;0.10;;;14.00;99.90;;;;;;5134941;27;20049;-61
2023/10/08 07:54:27;;;;;;;2.05;0.28;;;13.80;99.90;;;;;;5134795;27;20752;-62
2023/10/08 07:57:09;;;;;;;0.10;0.10;;;14.20;99.90;;;;;;5134752;27;20082;-63
2023/10/08 07:59:41;;;;;;;0.10;0.10;;;14.10;99.90;;;;;;5135238;27;20047;-61
2023/10/08 08:02:11;;;;;;;0.30;0.30;;;14.20;99.90;;;;;;5134928;27;20038;-61
2023/10/08 08:04:39;;;;;;;0.10;0.10;;;14.20;99.90;;;;;;5134915;27;20051;-62
2023/10/08 08:07:15;;;;;;;0.63;0.63;;;14.40;99.90;;;;;;5135048;27;20066;-61
2023/10/08 08:09:48;;;;;;;0.20;0.20;;;14.20;99.90;;;;;;5134902;27;20063;-63
2023/10/08 08:12:13;;;;;;;0.15;0.15;;;14.30;99.90;;;;;;5134896;27;20281;-64
2023/10/08 08:14:41;;;;;;;0.10;0.10;;;14.40;99.90;;;;;;5134704;27;20459;-61
2023/10/08 08:17:13;;;;;;;0.10;0.10;;;14.40;99.90;;;;;;5134673;27;20108;-61
2023/10/08 08:19:40;;;;;;;0.10;0.10;;;14.70;99.90;;;;;;5134511;27;20082;-64
2023/10/08 08:22:05;;;;;;;0.10;0.10;;;14.20;99.90;;;;;;5133529;27;20458;-62
2023/10/08 08:24:35;;;;;;;3.33;0.63;;;14.80;99.90;;;;;;5134597;27;20085;-61
2023/10/08 08:27:08;;;;;;;0.00;0.00;;;14.50;99.90;;;;;;5116214;27;20047;-61
2023/10/08 08:29:44;;;;;;;0.88;0.88;;;14.60;99.90;;;;;;5134623;27;20116;-64
2023/10/08 08:32:15;;;;;;;1.35;0.17;;;14.70;99.90;;;;;;5134334;27;20592;-63
2023/10/08 08:34:43;;;;;;;0.10;0.10;;;14.70;99.90;;;;;;5134215;27;20487;-61
2023/10/08 08:37:11;;;;;;;0.20;0.20;;;14.80;99.90;;;;;;5134363;27;20118;-61
2023/10/08 08:39:37;;;;;;;0.30;0.30;;;15.00;99.90;;;;;;5134179;27;20047;-61
2023/10/08 08:42:07;;;;;;;0.35;0.35;;;14.90;99.90;;;;;;5134108;27;20058;-61
2023/10/08 08:44:39;;;;;;;0.20;0.20;;;14.80;99.90;;;;;;5115544;27;20047;-61
2023/10/08 08:47:06;;;;;;;0.20;0.20;;;15.20;99.90;;;;;;5134187;27;20053;-61
2023/10/08 08:49:39;;;;;;;0.10;0.10;;;14.80;99.90;;;;;;5133831;27;20047;-61
2023/10/08 08:52:05;;;;;;;0.20;0.20;;;14.80;99.90;;;;;;5133993;27;20103;-62
2023/10/08 08:54:31;;;;;;;;;;;14.90;99.90;;;;;;5134343;27;20183;-63
2023/10/08 08:56:59;;;;;;;0.13;0.13;;;14.90;99.90;;;;;;5133889;27;19997;-62
2023/10/08 08:59:26;;;;;;;0.10;0.10;;;15.20;99.90;;;;;;5133643;27;20055;-61
2023/10/08 09:01:54;;;;;;;0.17;0.17;;;14.90;99.90;;;;;;5133610;27;20089;-62
2023/10/08 09:04:32;;;;;;;0.10;0.10;;;15.10;99.90;;;;;;5133700;27;20047;-62
2023/10/08 09:07:04;;;;;;;0.10;0.10;;;15.40;99.90;;;;;;5133765;27;20099;-62
2023/10/08 09:09:34;;;;;;;0.43;0.38;;;15.30;99.90;;;;;;5133381;27;20483;-62
2023/10/08 09:12:01;;;;;;;0.10;0.10;;;15.00;99.90;;;;;;5133641;27;20047;-62
2023/10/08 09:14:31;;;;;;;0.88;0.77;;;15.10;99.90;;;;;;5133659;27;20051;-61
2023/10/08 09:16:59;;;;;;;0.00;0.00;;;15.10;99.90;;;;;;5133504;27;20054;-62
2023/10/08 09:19:26;;;;;;;0.10;0.10;;;15.30;99.90;;;;;;5133362;27;20051;-62
2023/10/08 09:22:09;;;;;;;0.10;0.10;;;15.60;99.90;;;;;;5133539;27;20051;-62
2023/10/08 09:24:36;;;;;;;0.10;0.10;;;15.60;99.90;;;;;;5133103;27;20051;-62
2023/10/08 09:27:21;;;;;;;0.30;0.30;;;15.60;99.90;;;;;;5133234;27;20050;-63
2023/10/08 09:29:47;;;;;;;0.15;0.15;;;15.90;99.90;;;;;;5133483;27;20043;-61
2023/10/08 09:32:13;;;;;;;0.05;0.05;;;16.20;99.90;;;;;;5133188;27;20059;-62
2023/10/08 09:34:40;;;;;;;;;;;15.70;99.90;;;;;;5133739;27;20049;-64
2023/10/08 09:37:07;;;;;;;0.10;0.10;;;16.00;99.90;;;;;;5133136;27;19923;-61
2023/10/08 09:39:36;;;;;;;0.10;0.10;;;16.30;99.90;;;;;;5132984;27;20939;-62
2023/10/08 09:42:06;;;;;;;0.10;0.10;;;16.40;99.90;;;;;;5132873;27;20103;-62
2023/10/08 09:44:32;;;;;;;0.20;0.20;;;16.50;99.90;;;;;;5132907;27;20130;-62
2023/10/08 09:47:06;;;;;;;0.15;0.15;;;16.10;99.90;;;;;;5132935;27;20070;-62
2023/10/08 09:50:02;;;;;;;0.22;0.22;;;16.30;99.90;;;;;;5132555;27;20517;-62
2023/10/08 09:52:36;;;;;;;0.30;0.30;;;16.00;99.90;;;;;;5133026;27;20184;-62
2023/10/08 09:55:11;;;;;;;0.00;0.00;;;15.80;99.90;;;;;;5132747;27;20440;-62
2023/10/08 09:57:37;;;;;;;0.10;0.10;;;16.40;99.90;;;;;;5132540;27;20050;-62
2023/10/08 10:00:14;;;;;;;0.32;0.32;;;16.30;99.90;;;;;;5123482;27;20360;-66
2023/10/08 10:02:44;;;;;;;0.10;0.10;;;16.30;99.90;;;;;;5122239;27;20053;-63
2023/10/08 10:05:20;;;;;;;0.20;0.20;;;16.00;99.90;;;;;;5122351;27;20100;-63
2023/10/08 10:07:48;;;;;;;0.43;0.30;;;16.20;99.90;;;;;;5121372;27;20055;-62
2023/10/08 10:10:34;;;;;;;0.47;0.28;;;16.30;99.90;;;;;;5125814;27;20043;-62
2023/10/08 10:13:02;;;;;;;0.10;0.10;;;16.40;99.90;;;;;;5132380;27;20063;-63
2023/10/08 10:15:31;;;;;;;0.20;0.20;;;16.30;99.90;;;;;;5123931;27;20088;-62
2023/10/08 10:18:10;;;;;;;0.10;0.10;;;16.20;99.90;;;;;;5111604;28;20097;-64
2023/10/08 10:21:03;;;;;;;0.40;0.40;;;16.70;99.90;;;;;;5119427;27;20066;-63
2023/10/08 10:23:39;;;;;;;0.20;0.20;;;16.50;99.90;;;;;;5113002;27;20458;-61
2023/10/08 10:26:22;;;;;;;0.00;0.00;;;16.60;99.90;;;;;;5131627;27;20051;-63
2023/10/08 10:29:11;;;;;;;0.10;0.10;;;16.70;99.90;;;;;;5132075;27;20073;-61
2023/10/08 10:31:47;;;;;;;0.13;0.13;;;17.10;99.90;;;;;;5112508;28;20047;-63
2023/10/08 10:34:16;;;;;;;0.52;0.35;;;16.70;99.90;;;;;;5132011;27;20436;-64
2023/10/08 10:36:43;;;;;;;0.10;0.10;;;16.80;99.90;;;;;;5131624;27;20035;-62
2023/10/08 10:39:25;;;;;;;0.20;0.20;;;16.60;99.90;;;;;;5118266;28;20122;-64
2023/10/08 10:41:57;;;;;;;0.30;0.20;;;16.40;99.90;;;;;;5110529;28;20087;-64
2023/10/08 10:44:23;;;;;;;0.10;0.10;;;16.50;99.90;;;;;;5111425;28;20164;-68
2023/10/08 10:47:22;;;;;;;0.88;0.88;;;16.50;99.90;;;;;;5114282;27;20059;-63
2023/10/08 10:49:47;;;;;;;0.47;0.45;;;16.30;99.90;;;;;;5117447;27;20057;-69
2023/10/08 10:52:29;;;;;;;0.10;0.10;;;16.90;99.90;;;;;;5128458;27;20058;-66
2023/10/08 10:55:06;;;;;;;0.00;0.00;;;16.20;99.90;;;;;;5115374;28;20046;-63
2023/10/08 10:57:41;;;;;;;;;;;16.60;99.90;;;;;;5115666;27;20487;-63
2023/10/08 11:02:56;;;;;;;0.20;0.20;;;16.50;99.90;;;;;;5115217;28;20078;-62
2023/10/08 11:05:28;;;;;;;2.20;0.28;;;16.40;99.90;;;;;;5114727;28;20089;-63
2023/10/08 11:08:04;;;;;;;0.00;0.00;;;16.40;99.90;;;;;;5108263;27;20135;-63
2023/10/08 11:10:40;;;;;;;0.32;0.32;;;16.30;99.90;;;;;;5122007;27;20055;-65
2023/10/08 11:13:15;;;;;;;0.10;0.10;;;16.60;99.90;;;;;;5134262;27;20039;-64
2023/10/08 11:15:49;;;;;;;0.17;0.17;;;16.50;99.90;;;;;;5134483;27;20072;-63
2023/10/08 11:18:23;;;;;;;0.20;0.20;;;16.80;99.90;;;;;;5114994;27;20036;-66
2023/10/08 11:21:02;;;;;;;0.73;0.28;;;17.00;99.90;;;;;;5113696;28;20040;-64
2023/10/08 11:23:52;;;;;;;0.00;0.00;;;17.20;99.90;;;;;;5114091;28;20078;-62
2023/10/08 11:26:19;;;;;;;1.00;0.57;;;16.60;99.90;;;;;;5109307;27;20075;-63
2023/10/08 11:28:48;;;;;;;1.30;0.80;;;17.30;99.90;;;;;;5133974;27;20047;-65
2023/10/08 11:31:20;;;;;;;0.47;0.47;;;17.10;99.90;;;;;;5131158;27;20055;-64
2023/10/08 11:33:54;;;;;;;0.10;0.10;;;17.00;99.90;;;;;;5134055;27;20496;-64
2023/10/08 11:36:33;;;;;;;0.25;0.25;;;17.10;99.90;;;;;;5134291;27;20051;-63
2023/10/08 11:39:11;;;;;;;0.15;0.15;;;17.10;99.90;;;;;;5134512;27;20624;-64
2023/10/08 11:41:52;;;;;;;0.13;0.13;;;16.80;99.90;;;;;;5135058;27;20047;-63
2023/10/08 11:44:19;;;;;;;1.10;0.82;;;17.00;99.90;;;;;;5134771;27;20092;-64
2023/10/08 11:46:47;;;;;;;2.25;1.45;;;17.10;99.90;;;;;;5134653;27;20059;-64
2023/10/08 11:49:17;;;;;;;0.10;0.10;;;17.30;99.90;;;;;;5135020;27;20046;-63
2023/10/08 11:51:44;;;;;;;0.13;0.13;;;17.40;99.90;;;;;;5134637;27;20145;-63
2023/10/08 11:54:12;;;;;;;0.22;0.22;;;17.30;99.90;;;;;;5134676;27;20509;-64
2023/10/08 11:56:39;;;;;;;1.27;1.17;;;17.50;99.90;;;;;;5134938;27;20068;-63
2023/10/08 11:59:08;;;;;;;0.20;0.20;;;17.20;99.90;;;;;;5134734;27;20051;-63
2023/10/08 12:01:41;;;;;;;0.10;0.10;;;17.60;99.90;;;;;;5134494;27;20487;-63
2023/10/08 12:04:12;;;;;;;0.47;0.47;;;17.60;99.90;;;;;;5134639;27;20414;-64
2023/10/08 12:06:46;;;;;;;0.47;0.17;;;17.90;99.90;;;;;;5134477;27;20154;-64
2023/10/08 12:09:15;;;;;;;0.10;0.10;;;17.70;99.90;;;;;;5134088;27;20506;-64
2023/10/08 12:11:42;;;;;;;0.30;0.30;;;17.60;99.90;;;;;;5134550;27;20437;-65
2023/10/08 12:14:10;;;;;;;1.38;1.00;;;17.90;99.90;;;;;;5134302;27;20089;-64
2023/10/08 12:16:36;;;;;;;0.20;0.20;;;18.00;99.90;;;;;;5134584;27;20298;-63
2023/10/08 12:19:15;;;;;;;0.00;0.00;;;17.70;99.90;;;;;;5134708;27;20534;-63
2023/10/08 12:21:42;;;;;;;0.00;0.00;;;17.70;99.90;;;;;;5134386;27;20051;-63
2023/10/08 12:24:12;;;;;;;0.00;0.00;;;17.40;99.90;;;;;;5134269;27;20051;-65
2023/10/08 12:26:45;;;;;;;0.10;0.10;;;18.10;99.90;;;;;;5133919;27;20047;-63
2023/10/08 12:29:14;;;;;;;0.20;0.20;;;17.90;99.90;;;;;;5134279;27;20142;-63
2023/10/08 12:31:40;;;;;;;0.38;0.20;;;18.30;99.90;;;;;;5134038;27;20050;-63
2023/10/08 12:34:05;;;;;;;0.00;0.00;;;18.30;99.90;;;;;;5133563;27;20426;-64
2023/10/08 12:36:36;;;;;;;0.10;0.10;;;18.60;99.90;;;;;;5133845;27;20092;-63
2023/10/08 12:39:09;;;;;;;0.70;0.70;;;18.60;99.90;;;;;;5133986;27;20367;-65
2023/10/08 12:41:38;;;;;;;0.15;0.13;;;18.80;99.90;;;;;;5133873;27;20051;-63
2023/10/08 12:44:07;;;;;;;0.17;0.17;;;18.70;99.90;;;;;;5133736;27;20089;-64
2023/10/08 12:46:33;;;;;;;0.00;0.00;;;18.20;99.90;;;;;;5133792;27;20394;-64
2023/10/08 12:49:01;;;;;;;0.25;0.15;;;18.30;99.90;;;;;;5133745;27;20043;-65
2023/10/08 12:51:31;;;;;;;0.10;0.10;;;18.00;99.90;;;;;;5134197;27;20066;-66
2023/10/08 12:54:06;;;;;;;0.00;0.00;;;17.90;99.90;;;;;;5133913;27;20090;-63
2023/10/08 12:56:35;;;;;;;0.03;0.03;;;17.50;99.90;;;;;;5133624;27;20089;-63
2023/10/08 12:59:06;;;;;;;0.00;0.00;;;17.60;99.90;;;;;;5133329;27;20039;-64
2023/10/08 13:01:35;;;;;;;0.10;0.10;;;17.50;99.90;;;;;;5133255;27;20121;-64
2023/10/08 13:04:06;;;;;;;0.20;0.20;;;17.40;99.90;;;;;;5133354;27;20046;-63
2023/10/08 13:06:36;;;;;;;2.15;0.28;;;17.40;99.90;;;;;;5133393;27;20051;-64
2023/10/08 13:09:09;;;;;;;0.10;0.10;;;17.60;99.90;;;;;;5132816;27;20085;-64
2023/10/08 13:11:34;;;;;;;0.40;0.25;;;17.60;99.90;;;;;;5133479;27;20051;-63
2023/10/08 13:14:00;;;;;;;0.20;0.20;;;17.70;99.90;;;;;;5133054;27;20050;-63
2023/10/08 13:16:31;;;;;;;0.00;0.00;;;17.60;99.90;;;;;;5114953;27;20150;-64
2023/10/08 13:19:01;;;;;;;0.00;0.00;;;17.50;99.90;;;;;;5133247;27;20050;-65
2023/10/08 13:21:28;;;;;;;0.22;0.17;;;17.30;99.90;;;;;;5133057;27;20051;-64
2023/10/08 13:24:00;;;;;;;0.10;0.10;;;16.90;99.90;;;;;;5133087;27;20060;-63
2023/10/08 13:26:30;;;;;;;0.13;0.13;;;17.50;99.90;;;;;;5133103;27;20035;-63
2023/10/08 13:28:58;;;;;;;0.15;0.15;;;17.50;99.90;;;;;;5133251;27;20054;-65
2023/10/08 13:31:24;;;;;;;0.32;0.17;;;17.60;99.90;;;;;;5133003;27;20055;-63
2023/10/08 13:33:52;;;;;;;0.00;0.00;;;17.70;99.90;;;;;;5133087;27;20542;-63
2023/10/08 13:36:18;;;;;;;0.00;0.00;;;17.70;99.90;;;;;;5132601;27;20054;-65
2023/10/08 13:38:47;;;;;;;0.10;0.10;;;17.70;99.90;;;;;;5132385;27;20051;-64
2023/10/08 13:41:16;;;;;;;0.10;0.10;;;17.70;99.90;;;;;;5132873;27;20047;-64
2023/10/08 13:43:51;;;;;;;0.20;0.20;;;17.30;99.90;;;;;;5132498;27;20054;-63
2023/10/08 13:46:22;;;;;;;0.10;0.10;;;17.30;99.90;;;;;;5133316;27;20046;-63
2023/10/08 13:48:49;;;;;;;0.05;0.05;;;17.20;99.90;;;;;;5133164;27;20054;-64